createdAt,value
2018-12-18T00:00:54.319Z,79.51
2018-12-18T00:03:22.693Z,79.81
2018-12-18T00:05:51.034Z,79.29
2018-12-18T00:08:19.337Z,79.66
2018-12-18T00:13:38.726Z,79.91
2018-12-18T00:16:06.967Z,79.80
2018-12-18T00:18:35.228Z,80.00
2018-12-18T00:21:03.763Z,80.52
2018-12-18T00:23:32.038Z,80.28
2018-12-18T00:26:00.404Z,80.27
2018-12-18T00:28:28.632Z,80.49
2018-12-18T00:30:56.964Z,80.30
2018-12-18T00:33:25.216Z,80.11
2018-12-18T00:35:53.469Z,79.39
2018-12-18T00:38:21.807Z,79.64
2018-12-18T00:40:50.071Z,79.16
2018-12-18T00:43:18.291Z,79.16
2018-12-18T00:45:46.891Z,79.34
2018-12-18T00:48:15.419Z,79.52
2018-12-18T00:50:43.818Z,79.18
2018-12-18T00:53:12.261Z,79.63
2018-12-18T00:55:40.518Z,79.25
2018-12-18T00:58:08.767Z,79.20
2018-12-18T01:00:37.024Z,78.64
2018-12-18T01:03:05.462Z,78.36
2018-12-18T01:05:33.692Z,78.04
2018-12-18T01:08:02.051Z,78.76
2018-12-18T01:10:30.507Z,78.40
2018-12-18T01:12:58.749Z,78.99
2018-12-18T01:15:27.093Z,78.52
2018-12-18T01:17:55.315Z,79.10
2018-12-18T01:20:23.643Z,78.84
2018-12-18T01:22:51.883Z,78.66
2018-12-18T01:25:20.179Z,78.68
2018-12-18T01:27:48.391Z,78.63
2018-12-18T01:30:16.771Z,78.38
2018-12-18T01:32:45.059Z,78.71
2018-12-18T01:35:13.407Z,78.68
2018-12-18T01:37:41.738Z,78.81
2018-12-18T01:40:10.111Z,79.09
2018-12-18T01:42:38.509Z,79.16
2018-12-18T01:45:06.847Z,79.01
2018-12-18T01:47:35.058Z,79.11
2018-12-18T01:50:03.898Z,80.19
2018-12-18T01:52:32.347Z,79.98
2018-12-18T01:55:00.719Z,79.74
2018-12-18T01:57:29.022Z,80.00
2018-12-18T01:59:57.246Z,79.59
2018-12-18T02:02:25.655Z,80.45
2018-12-18T02:04:53.939Z,80.70
2018-12-18T02:07:22.301Z,80.25
2018-12-18T02:09:50.599Z,80.56
2018-12-18T02:12:18.821Z,80.70
2018-12-18T02:14:47.045Z,80.65
2018-12-18T02:17:15.266Z,81.18
2018-12-18T02:19:43.693Z,80.77
2018-12-18T02:22:11.945Z,81.47
2018-12-18T02:24:40.419Z,81.33
2018-12-18T02:27:08.629Z,81.46
2018-12-18T02:29:36.902Z,81.48
2018-12-18T02:32:05.140Z,80.42
2018-12-18T02:34:33.381Z,81.42
2018-12-18T02:37:01.600Z,80.89
2018-12-18T02:39:29.885Z,81.16
2018-12-18T02:41:58.115Z,81.36
2018-12-18T02:44:26.447Z,80.97
2018-12-18T02:46:54.915Z,81.52
2018-12-18T02:49:23.233Z,81.79
2018-12-18T02:51:56.244Z,81.72
2018-12-18T02:54:24.477Z,81.49
2018-12-18T02:56:52.713Z,81.42
2018-12-18T02:59:20.935Z,82.05
2018-12-18T03:01:49.144Z,81.23
2018-12-18T03:04:21.402Z,82.15
2018-12-18T03:06:47.892Z,81.77
2018-12-18T03:09:16.480Z,81.42
2018-12-18T03:11:44.766Z,81.50
2018-12-18T03:14:13.032Z,80.87
2018-12-18T03:16:41.514Z,81.05
2018-12-18T03:19:09.891Z,81.67
2018-12-18T03:21:38.157Z,81.54
2018-12-18T03:24:06.374Z,80.75
2018-12-18T03:26:34.592Z,81.15
2018-12-18T03:29:03.059Z,81.48
2018-12-18T03:31:31.765Z,81.40
2018-12-18T03:34:00.057Z,81.32
2018-12-18T03:36:28.363Z,80.86
2018-12-18T03:38:56.743Z,80.41
2018-12-18T03:41:25.016Z,81.26
2018-12-18T03:43:53.455Z,81.54
2018-12-18T03:46:21.731Z,81.09
2018-12-18T03:48:50.001Z,81.81
2018-12-18T03:51:18.284Z,81.73
2018-12-18T03:53:46.746Z,80.95
2018-12-18T03:56:14.958Z,81.33
2018-12-18T03:58:43.262Z,81.14
2018-12-18T04:03:45.914Z,81.16
2018-12-18T04:06:14.184Z,81.71
2018-12-18T04:11:17.003Z,81.01
2018-12-18T04:13:45.281Z,80.67
2018-12-18T04:16:13.503Z,80.36
2018-12-18T04:18:41.916Z,80.34
2018-12-18T04:21:10.157Z,80.81
2018-12-18T04:23:38.459Z,80.37
2018-12-18T04:26:06.699Z,80.33
2018-12-18T04:28:34.931Z,80.08
2018-12-18T04:31:03.204Z,79.37
2018-12-18T04:33:31.546Z,80.15
2018-12-18T04:35:59.963Z,79.88
2018-12-18T04:38:28.343Z,79.75
2018-12-18T04:40:56.611Z,80.45
2018-12-18T04:43:25.203Z,80.13
2018-12-18T04:45:53.535Z,80.40
2018-12-18T04:48:21.751Z,80.12
2018-12-18T04:50:50.219Z,79.76
2018-12-18T04:53:18.611Z,79.99
2018-12-18T04:55:46.850Z,79.54
2018-12-18T04:58:15.163Z,79.55
2018-12-18T05:00:43.503Z,79.91
2018-12-18T05:03:11.902Z,79.26
2018-12-18T05:05:40.413Z,79.64
2018-12-18T05:08:08.754Z,80.37
2018-12-18T05:10:37.088Z,80.54
2018-12-18T05:13:05.394Z,80.71
2018-12-18T05:15:33.797Z,80.56
2018-12-18T05:18:02.042Z,80.42
2018-12-18T05:20:30.254Z,80.56
2018-12-18T05:22:58.523Z,81.06
2018-12-18T05:25:26.749Z,80.43
2018-12-18T05:27:55.023Z,80.65
2018-12-18T05:30:23.244Z,81.21
2018-12-18T05:32:51.473Z,80.55
2018-12-18T05:35:19.815Z,81.31
2018-12-18T05:37:48.080Z,80.78
2018-12-18T05:40:16.356Z,81.05
2018-12-18T05:42:44.587Z,81.05
2018-12-18T05:45:12.812Z,80.92
2018-12-18T05:47:41.047Z,81.31
2018-12-18T05:50:09.329Z,81.05
2018-12-18T05:52:37.642Z,80.99
2018-12-18T05:55:07.707Z,81.37
2018-12-18T05:57:36.099Z,81.48
2018-12-18T06:00:05.324Z,82.12
2018-12-18T06:02:33.535Z,81.15
2018-12-18T06:05:03.325Z,80.85
2018-12-18T06:07:31.844Z,80.74
2018-12-18T06:10:00.127Z,81.02
2018-12-18T06:12:28.339Z,80.89
2018-12-18T06:14:56.564Z,81.29
2018-12-18T06:17:24.775Z,80.67
2018-12-18T06:19:53.002Z,81.31
2018-12-18T06:22:21.352Z,80.94
2018-12-18T06:24:49.578Z,80.79
2018-12-18T06:27:18.346Z,81.44
2018-12-18T06:29:46.560Z,81.25
2018-12-18T06:32:14.859Z,81.32
2018-12-18T06:34:43.240Z,81.54
2018-12-18T06:37:11.453Z,80.67
2018-12-18T06:39:39.711Z,80.43
2018-12-18T06:42:07.996Z,80.42
2018-12-18T06:44:36.243Z,80.29
2018-12-18T06:47:04.520Z,80.59
2018-12-18T06:49:32.748Z,80.36
2018-12-18T06:52:01.071Z,81.14
2018-12-18T06:54:29.326Z,80.06
2018-12-18T06:56:57.531Z,80.38
2018-12-18T06:59:25.750Z,80.24
2018-12-18T07:01:53.964Z,80.74
2018-12-18T07:04:22.199Z,80.51
2018-12-18T07:06:50.437Z,80.06
2018-12-18T07:09:18.648Z,80.54
2018-12-18T07:11:46.871Z,80.20
2018-12-18T07:14:15.089Z,80.43
2018-12-18T07:16:43.293Z,80.25
2018-12-18T07:19:11.552Z,79.91
2018-12-18T07:21:39.795Z,80.24
2018-12-18T07:24:13.888Z,80.62
2018-12-18T07:26:38.370Z,80.54
2018-12-18T07:29:06.651Z,79.80
2018-12-18T07:31:34.863Z,79.53
2018-12-18T07:34:03.115Z,79.61
2018-12-18T07:36:31.499Z,79.06
2018-12-18T07:38:59.707Z,80.16
2018-12-18T07:41:27.933Z,79.53
2018-12-18T07:43:56.301Z,80.35
2018-12-18T07:46:24.518Z,79.95
2018-12-18T07:48:52.848Z,80.15
2018-12-18T07:51:21.065Z,79.88
2018-12-18T07:53:49.443Z,80.27
2018-12-18T07:56:17.707Z,79.98
2018-12-18T07:58:45.961Z,80.00
2018-12-18T08:01:14.172Z,79.70
2018-12-18T08:03:42.407Z,79.34
2018-12-18T08:06:10.628Z,79.34
2018-12-18T08:08:38.876Z,79.30
2018-12-18T08:11:07.081Z,79.22
2018-12-18T08:13:35.317Z,79.46
2018-12-18T08:16:03.582Z,78.85
2018-12-18T08:18:31.790Z,79.01
2018-12-18T08:21:00.040Z,78.57
2018-12-18T08:23:28.272Z,78.52
2018-12-18T08:25:56.539Z,78.50
2018-12-18T08:28:24.803Z,78.55
2018-12-18T08:30:53.037Z,78.91
2018-12-18T08:33:21.278Z,78.62
2018-12-18T08:35:49.591Z,77.91
2018-12-18T08:38:17.885Z,77.37
2018-12-18T08:40:46.185Z,77.05
2018-12-18T08:43:14.471Z,76.95
2018-12-18T08:45:42.707Z,76.89
2018-12-18T08:48:11.116Z,77.17
2018-12-18T08:50:39.337Z,76.86
2018-12-18T08:53:07.578Z,76.25
2018-12-18T08:55:35.810Z,76.68
2018-12-18T08:58:04.095Z,76.04
2018-12-18T09:00:32.355Z,76.20
2018-12-18T09:03:00.562Z,75.84
2018-12-18T09:05:28.799Z,75.62
2018-12-18T09:07:57.083Z,75.08
2018-12-18T09:10:25.327Z,75.82
2018-12-18T09:12:53.532Z,74.92
2018-12-18T09:15:27.354Z,74.07
2018-12-18T09:17:55.636Z,74.38
2018-12-18T09:20:23.947Z,74.03
2018-12-18T09:22:52.175Z,74.40
2018-12-18T09:25:20.518Z,72.95
2018-12-18T09:27:48.778Z,72.78
2018-12-18T09:30:17.098Z,73.40
2018-12-18T09:32:45.308Z,72.73
2018-12-18T09:35:13.565Z,72.32
2018-12-18T09:37:42.697Z,73.26
2018-12-18T09:40:10.955Z,73.11
2018-12-18T09:42:44.902Z,72.25
2018-12-18T09:45:13.380Z,72.06
2018-12-18T09:47:41.602Z,71.94
2018-12-18T09:50:09.961Z,71.39
2018-12-18T09:52:38.171Z,71.22
2018-12-18T09:55:08.004Z,70.13
2018-12-18T09:57:57.069Z,70.46
2018-12-18T10:00:25.526Z,69.52
2018-12-18T10:02:53.751Z,70.28
2018-12-18T10:05:21.959Z,69.68
2018-12-18T10:07:50.419Z,68.78
2018-12-18T10:10:18.657Z,69.53
2018-12-18T10:13:01.143Z,69.42
2018-12-18T10:15:29.401Z,69.22
2018-12-18T10:17:57.754Z,69.44
2018-12-18T10:20:25.959Z,70.08
2018-12-18T10:22:54.200Z,69.63
2018-12-18T10:25:22.527Z,70.29
2018-12-18T10:27:50.791Z,70.29
2018-12-18T10:30:19.032Z,70.18
2018-12-18T10:32:47.416Z,70.47
2018-12-18T10:35:15.914Z,70.48
2018-12-18T10:37:44.133Z,70.64
2018-12-18T10:40:12.666Z,70.77
2018-12-18T10:42:41.503Z,70.63
2018-12-18T10:45:13.844Z,70.71
2018-12-18T10:47:42.311Z,70.35
2018-12-18T10:50:10.579Z,70.85
2018-12-18T10:52:38.794Z,70.26
2018-12-18T10:55:07.134Z,69.58
2018-12-18T10:57:35.410Z,69.45
2018-12-18T11:03:00.607Z,68.90
2018-12-18T11:05:28.867Z,69.08
2018-12-18T11:07:57.245Z,69.01
2018-12-18T11:10:25.475Z,69.03
2018-12-18T11:12:59.247Z,68.45
2018-12-18T11:15:27.494Z,68.52
2018-12-18T11:17:55.831Z,68.30
2018-12-18T11:20:24.157Z,67.90
2018-12-18T11:22:52.382Z,68.12
2018-12-18T11:25:20.600Z,67.17
2018-12-18T11:27:48.855Z,68.35
2018-12-18T11:30:17.091Z,67.55
2018-12-18T11:32:45.372Z,68.26
2018-12-18T11:35:13.674Z,67.67
2018-12-18T11:37:41.907Z,68.10
2018-12-18T11:40:10.333Z,68.53
2018-12-18T11:42:38.561Z,68.04
2018-12-18T11:45:06.889Z,67.97
2018-12-18T11:47:35.108Z,68.70
2018-12-18T11:50:04.835Z,68.32
2018-12-18T11:52:33.052Z,68.86
2018-12-18T11:55:01.345Z,68.66
2018-12-18T11:57:29.604Z,68.90
2018-12-18T11:59:57.852Z,68.87
2018-12-18T12:02:26.064Z,68.93
2018-12-18T12:04:54.419Z,68.05
2018-12-18T12:07:22.674Z,68.54
2018-12-18T12:09:50.912Z,66.13
2018-12-18T12:12:19.283Z,66.08
2018-12-18T12:14:47.963Z,65.99
2018-12-18T12:17:16.465Z,66.92
2018-12-18T12:19:44.761Z,67.50
2018-12-18T12:22:13.066Z,66.20
2018-12-18T12:24:41.299Z,65.78
2018-12-18T12:27:14.826Z,65.47
2018-12-18T12:29:43.159Z,64.98
2018-12-18T12:32:11.412Z,65.49
2018-12-18T12:34:39.639Z,65.02
2018-12-18T12:37:07.854Z,63.45
2018-12-18T12:39:36.317Z,63.09
2018-12-18T12:42:04.562Z,61.57
2018-12-18T12:44:33.025Z,61.64
2018-12-18T12:47:01.283Z,61.33
2018-12-18T12:49:34.975Z,59.79
2018-12-18T12:52:03.463Z,59.33
2018-12-18T12:54:31.885Z,59.32
2018-12-18T12:57:00.169Z,58.98
2018-12-18T12:59:28.538Z,57.17
2018-12-18T13:01:56.775Z,56.34
2018-12-18T13:04:25.075Z,55.94
2018-12-18T13:06:53.382Z,55.19
2018-12-18T13:09:21.616Z,55.55
2018-12-18T13:11:49.828Z,54.46
2018-12-18T13:14:18.192Z,53.83
2018-12-18T13:16:46.491Z,53.09
2018-12-18T13:19:14.729Z,52.69
2018-12-18T13:21:43.128Z,52.65
2018-12-18T13:24:11.452Z,51.45
2018-12-18T13:26:39.711Z,51.60
2018-12-18T13:29:07.951Z,52.07
2018-12-18T13:31:36.335Z,52.36
2018-12-18T13:34:04.696Z,51.76
2018-12-18T13:36:32.931Z,52.27
2018-12-18T13:39:01.178Z,52.10
2018-12-18T13:41:29.388Z,53.19
2018-12-18T13:43:57.611Z,54.30
2018-12-18T13:46:25.901Z,55.05
2018-12-18T13:48:54.110Z,55.76
2018-12-18T13:51:22.339Z,55.38
2018-12-18T13:53:50.715Z,57.15
2018-12-18T13:56:19.022Z,58.64
2018-12-18T13:58:47.276Z,58.87
2018-12-18T14:01:15.491Z,59.79
2018-12-18T14:03:43.819Z,60.36
2018-12-18T14:06:12.039Z,61.30
2018-12-18T14:08:45.081Z,62.11
2018-12-18T14:11:13.468Z,61.68
2018-12-18T14:13:41.691Z,62.76
2018-12-18T14:16:10.053Z,63.03
2018-12-18T14:18:38.596Z,63.05
2018-12-18T14:21:06.859Z,63.95
2018-12-18T14:23:35.267Z,63.71
2018-12-18T14:26:03.570Z,64.09
2018-12-18T14:28:31.815Z,64.78
2018-12-18T14:31:00.083Z,65.09
2018-12-18T14:33:28.307Z,67.33
2018-12-18T14:35:56.623Z,67.15
2018-12-18T14:38:24.863Z,66.71
2018-12-18T14:40:53.104Z,66.96
2018-12-18T14:43:21.563Z,67.59
2018-12-18T14:45:49.819Z,68.23
2018-12-18T14:48:18.223Z,68.33
2018-12-18T14:50:46.462Z,69.02
2018-12-18T14:53:14.695Z,69.69
2018-12-18T14:55:42.950Z,69.74
2018-12-18T14:58:11.229Z,69.81
2018-12-18T15:00:39.599Z,70.20
2018-12-18T15:03:07.839Z,70.48
2018-12-18T15:05:36.115Z,70.52
2018-12-18T15:08:04.330Z,71.23
2018-12-18T15:10:32.603Z,71.32
2018-12-18T15:13:01.359Z,71.98
2018-12-18T15:15:29.645Z,72.82
2018-12-18T15:17:57.956Z,71.95
2018-12-18T15:20:26.218Z,72.39
2018-12-18T15:22:54.421Z,72.73
2018-12-18T15:25:22.642Z,72.57
2018-12-18T15:27:50.871Z,73.09
2018-12-18T15:30:25.705Z,74.00
2018-12-18T15:32:49.657Z,73.65
2018-12-18T15:35:17.985Z,74.36
2018-12-18T15:37:46.227Z,74.24
2018-12-18T15:40:14.587Z,74.52
2018-12-18T15:42:42.865Z,74.91
2018-12-18T15:45:11.122Z,75.44
2018-12-18T15:47:39.483Z,75.31
2018-12-18T15:50:07.988Z,75.29
2018-12-18T15:52:36.300Z,75.40
2018-12-18T15:55:05.491Z,75.42
2018-12-18T15:57:33.787Z,75.89
2018-12-18T16:00:02.048Z,74.93
2018-12-18T16:02:30.384Z,75.63
2018-12-18T16:04:58.624Z,74.74
2018-12-18T16:07:27.052Z,74.83
2018-12-18T16:09:55.454Z,74.97
2018-12-18T16:12:23.710Z,74.02
2018-12-18T16:14:51.914Z,74.84
2018-12-18T16:17:20.211Z,74.58
2018-12-18T16:19:48.443Z,74.34
2018-12-18T16:22:16.707Z,74.50
2018-12-18T16:24:44.951Z,74.34
2018-12-18T16:27:13.201Z,74.59
2018-12-18T16:29:41.454Z,74.61
2018-12-18T16:32:09.811Z,75.09
2018-12-18T16:34:38.079Z,74.94
2018-12-18T16:37:06.470Z,74.77
2018-12-18T16:39:34.854Z,74.57
2018-12-18T16:42:03.160Z,75.11
2018-12-18T16:44:31.423Z,75.29
2018-12-18T16:46:59.644Z,75.45
2018-12-18T16:49:27.881Z,75.14
2018-12-18T16:51:56.122Z,75.71
2018-12-18T16:54:24.791Z,75.45
2018-12-18T16:56:53.108Z,75.50
2018-12-18T16:59:21.325Z,75.06
2018-12-18T17:01:49.614Z,75.08
2018-12-18T17:04:17.852Z,75.57
2018-12-18T17:06:46.145Z,75.30
2018-12-18T17:09:14.384Z,75.81
2018-12-18T17:11:42.704Z,76.65
2018-12-18T17:14:10.928Z,76.74
2018-12-18T17:16:39.139Z,76.99
2018-12-18T17:19:07.428Z,76.94
2018-12-18T17:21:35.756Z,77.44
2018-12-18T17:24:04.003Z,78.34
2018-12-18T17:26:32.224Z,80.04
2018-12-18T17:29:00.492Z,81.99
2018-12-18T17:31:28.712Z,81.73
2018-12-18T17:33:56.964Z,83.29
2018-12-18T17:36:25.187Z,83.41
2018-12-18T17:38:53.476Z,83.24
2018-12-18T17:41:21.701Z,84.21
2018-12-18T17:43:50.303Z,83.98
2018-12-18T17:46:18.537Z,84.10
2018-12-18T17:48:46.789Z,83.75
2018-12-18T17:51:15.010Z,84.09
2018-12-18T17:53:43.351Z,83.70
2018-12-18T17:56:11.633Z,84.22
2018-12-18T17:58:39.905Z,84.90
2018-12-18T18:01:08.095Z,84.63
2018-12-18T18:03:36.364Z,83.46
2018-12-18T18:06:04.662Z,83.50
2018-12-18T18:08:33.016Z,83.54
2018-12-18T18:11:01.392Z,82.84
2018-12-18T18:13:29.658Z,82.44
2018-12-18T18:15:58.139Z,82.21
2018-12-18T18:18:26.387Z,82.62
2018-12-18T18:20:54.673Z,82.27
2018-12-18T18:23:22.888Z,82.12
2018-12-18T18:25:51.168Z,82.48
2018-12-18T18:28:19.368Z,82.51
2018-12-18T18:30:47.701Z,82.52
2018-12-18T18:33:15.935Z,81.60
2018-12-18T18:35:44.184Z,81.54
2018-12-18T18:38:12.497Z,80.30
2018-12-18T18:40:40.726Z,81.04
2018-12-18T18:43:08.949Z,81.47
2018-12-18T18:45:37.771Z,81.27
2018-12-18T18:48:05.985Z,81.18
2018-12-18T18:50:34.420Z,81.35
2018-12-18T18:53:02.637Z,80.82
2018-12-18T18:55:30.984Z,80.58
2018-12-18T18:57:59.232Z,81.11
2018-12-18T19:00:27.702Z,81.07
2018-12-18T19:02:56.002Z,81.15
2018-12-18T19:05:24.247Z,81.12
2018-12-18T19:07:56.483Z,80.49
2018-12-18T19:10:22.751Z,80.45
2018-12-18T19:15:37.564Z,79.99
2018-12-18T19:18:05.826Z,81.11
2018-12-18T19:20:34.035Z,81.11
2018-12-18T19:23:02.397Z,81.17
2018-12-18T19:25:30.594Z,80.50
2018-12-18T19:27:58.875Z,80.53
2018-12-18T19:30:27.122Z,80.84
2018-12-18T19:32:55.369Z,80.21
2018-12-18T19:35:23.663Z,79.74
2018-12-18T19:37:51.955Z,80.40
2018-12-18T19:40:20.191Z,80.34
2018-12-18T19:42:48.396Z,80.28
2018-12-18T19:45:16.676Z,80.40
2018-12-18T19:47:44.928Z,80.85
2018-12-18T19:50:13.210Z,80.89
2018-12-18T19:52:41.595Z,81.48
2018-12-18T19:55:09.835Z,81.25
2018-12-18T19:57:38.080Z,81.05
2018-12-18T20:00:10.282Z,80.32
2018-12-18T20:02:38.542Z,79.93
2018-12-18T20:05:07.012Z,79.35
2018-12-18T20:07:35.290Z,79.76
2018-12-18T20:10:03.866Z,79.61
2018-12-18T20:12:32.082Z,80.40
2018-12-18T20:15:01.129Z,79.73
2018-12-18T20:17:29.369Z,80.31
2018-12-18T20:19:57.746Z,80.20
2018-12-18T20:22:26.218Z,80.66
2018-12-18T20:24:54.422Z,79.72
2018-12-18T20:27:22.656Z,80.22
2018-12-18T20:29:51.185Z,79.24
2018-12-18T20:32:19.402Z,79.27
2018-12-18T20:34:47.635Z,79.99
2018-12-18T20:37:18.351Z,79.92
2018-12-18T20:39:46.108Z,79.45
2018-12-18T20:42:14.374Z,79.39
2018-12-18T20:44:42.672Z,79.30
2018-12-18T20:47:10.900Z,79.73
2018-12-18T20:49:39.240Z,79.76
2018-12-18T20:52:07.451Z,79.79
2018-12-18T20:54:35.669Z,79.67
2018-12-18T20:57:03.975Z,79.71
2018-12-18T20:59:32.204Z,79.23
2018-12-18T21:02:00.496Z,78.91
2018-12-18T21:04:28.799Z,78.54
2018-12-18T21:06:57.045Z,78.77
2018-12-18T21:09:25.411Z,79.50
2018-12-18T21:11:53.643Z,78.76
2018-12-18T21:14:21.992Z,78.70
2018-12-18T21:16:50.219Z,78.83
2018-12-18T21:19:19.514Z,78.45
2018-12-18T21:21:47.838Z,78.46
2018-12-18T21:24:16.093Z,79.65
2018-12-18T21:26:44.302Z,79.49
2018-12-18T21:29:12.586Z,80.25
2018-12-18T21:31:40.947Z,79.26
2018-12-18T21:34:10.151Z,79.63
2018-12-18T21:36:38.613Z,79.02
2018-12-18T21:39:08.360Z,79.22
2018-12-18T21:41:36.584Z,79.63
2018-12-18T21:44:04.827Z,79.08
2018-12-18T21:46:33.060Z,79.03
2018-12-18T21:49:01.304Z,79.77
2018-12-18T21:51:29.523Z,80.64
2018-12-18T21:53:57.791Z,80.25
2018-12-18T21:56:26.015Z,79.07
2018-12-18T21:58:54.273Z,78.25
2018-12-18T22:01:22.582Z,79.00
2018-12-18T22:03:50.808Z,79.18
2018-12-18T22:06:19.032Z,79.57
2018-12-18T22:08:47.246Z,79.20
2018-12-18T22:11:15.486Z,78.79
2018-12-18T22:13:43.698Z,79.11
2018-12-18T22:16:12.158Z,78.61
2018-12-18T22:18:40.492Z,78.65
2018-12-18T22:21:08.709Z,78.95
2018-12-18T22:23:36.936Z,78.46
2018-12-18T22:26:05.156Z,78.77
2018-12-18T22:28:33.414Z,78.73
2018-12-18T22:31:01.636Z,79.46
2018-12-18T22:33:30.805Z,80.06
2018-12-18T22:35:59.022Z,79.46
2018-12-18T22:38:27.274Z,80.21
2018-12-18T22:40:55.522Z,80.62
2018-12-18T22:43:23.771Z,79.52
2018-12-18T22:45:52.073Z,79.79
2018-12-18T22:48:20.287Z,79.71
2018-12-18T22:50:48.569Z,80.22
2018-12-18T22:53:16.880Z,79.98
2018-12-18T22:55:45.221Z,80.37
2018-12-18T22:58:13.579Z,79.80
2018-12-18T23:00:47.379Z,79.89
2018-12-18T23:03:15.761Z,79.80
2018-12-18T23:05:44.018Z,79.84
2018-12-18T23:08:12.260Z,80.18
2018-12-18T23:10:40.503Z,79.97
2018-12-18T23:13:08.967Z,80.04
2018-12-18T23:15:37.182Z,80.55
2018-12-18T23:18:05.499Z,79.86
2018-12-18T23:20:33.734Z,79.43
2018-12-18T23:23:01.947Z,80.16
2018-12-18T23:25:30.174Z,80.84
2018-12-18T23:27:58.450Z,80.52
2018-12-18T23:30:26.778Z,80.33
2018-12-18T23:32:54.995Z,80.57
2018-12-18T23:35:23.330Z,80.00
2018-12-18T23:37:51.631Z,80.19
2018-12-18T23:40:19.866Z,79.22
2018-12-18T23:42:48.086Z,79.17
2018-12-18T23:45:16.399Z,79.42
2018-12-18T23:47:44.624Z,79.90
2018-12-18T23:50:12.886Z,79.05
2018-12-18T23:52:41.190Z,79.68
2018-12-18T23:55:09.417Z,79.25
2018-12-18T23:57:37.636Z,79.69
